createdAt,value
2022-10-19T00:00:25.173Z,17.29
2022-10-19T00:16:07.996Z,17.79
2022-10-19T00:31:50.250Z,15.6
2022-10-19T00:47:32.768Z,14.1
2022-10-19T01:03:15.148Z,14.4
2022-10-19T01:18:57.346Z,10.9
2022-10-19T01:34:40.043Z,11.3
2022-10-19T01:50:22.327Z,8.2
2022-10-19T02:06:04.974Z,9.6
2022-10-19T02:21:47.274Z,9
2022-10-19T02:37:30.036Z,9.5
2022-10-19T02:53:12.799Z,9.39
2022-10-19T03:08:55.811Z,12.1
2022-10-19T03:24:38.835Z,11.3
2022-10-19T03:40:21.211Z,8.6
2022-10-19T03:56:04.016Z,7.7
2022-10-19T04:11:46.201Z,6
2022-10-19T04:27:28.271Z,7.2
2022-10-19T04:43:10.853Z,8.39
2022-10-19T04:58:53.053Z,5.5
2022-10-19T05:14:35.253Z,6.9
2022-10-19T05:30:17.334Z,5.5
2022-10-19T05:46:00.266Z,5.4
2022-10-19T06:01:43.164Z,7.2
2022-10-19T06:17:26.223Z,16
2022-10-19T06:33:08.691Z,11
2022-10-19T06:48:50.986Z,4.9
2022-10-19T07:04:33.485Z,4.6
2022-10-19T07:20:15.933Z,5.9
2022-10-19T07:35:57.978Z,4.8
2022-10-19T07:51:40.318Z,7.1
2022-10-19T08:07:22.902Z,5.8
2022-10-19T08:23:05.912Z,5.1
2022-10-19T08:38:48.871Z,5.5
2022-10-19T08:54:31.534Z,6.1
2022-10-19T09:10:14.037Z,5.1
2022-10-19T09:25:56.301Z,7
2022-10-19T09:41:38.516Z,6.1
2022-10-19T09:57:20.586Z,6.3
2022-10-19T10:13:03.382Z,4.19
2022-10-19T10:28:45.596Z,4.1
2022-10-19T10:44:28.036Z,4.4
2022-10-19T11:00:10.349Z,2.6
2022-10-19T11:15:52.872Z,2.8
2022-10-19T11:31:35.229Z,4.5
2022-10-19T11:47:18.147Z,3.1
2022-10-19T12:03:00.233Z,2.2
2022-10-19T12:18:42.545Z,3.6
2022-10-19T12:34:25.490Z,4.6
2022-10-19T12:50:07.692Z,3.5
2022-10-19T12:50:54.932Z,3.1
2022-10-19T13:06:37.586Z,2.5
2022-10-19T13:22:20.188Z,2.4
2022-10-19T13:38:02.513Z,3.1
2022-10-19T13:53:44.897Z,3.9
2022-10-19T14:09:27.336Z,7
2022-10-19T14:25:09.345Z,3.1
2022-10-19T14:40:51.941Z,2.7
2022-10-19T14:56:34.678Z,3.4
2022-10-19T15:12:17.289Z,5.4
2022-10-19T15:28:00.159Z,6.1
2022-10-19T15:43:42.557Z,4.1
2022-10-19T15:59:25.480Z,20.6
2022-10-19T16:15:07.770Z,5.9
2022-10-19T16:30:49.854Z,7.3
2022-10-19T16:46:32.637Z,10.4
2022-10-19T17:02:15.366Z,10.9
2022-10-19T17:17:57.979Z,15.8
2022-10-19T17:33:40.739Z,24.1
2022-10-19T17:49:22.965Z,17.6
2022-10-19T18:05:05.683Z,18
2022-10-19T18:20:48.183Z,16
2022-10-19T18:36:30.315Z,13.4
2022-10-19T18:52:13.158Z,14.7
2022-10-19T19:07:56.119Z,13.9
2022-10-19T19:23:38.433Z,13.3
2022-10-19T19:39:21.198Z,11.1
2022-10-19T19:55:03.319Z,20.9
2022-10-19T20:10:45.597Z,11.4
2022-10-19T20:26:28.217Z,11.1
2022-10-19T20:42:10.872Z,10.1
2022-10-19T20:57:53.022Z,11
2022-10-19T21:13:36.065Z,10.9
2022-10-19T21:29:19.099Z,10.1
2022-10-19T21:45:02.192Z,8.89
2022-10-19T22:00:45.196Z,8
2022-10-19T22:16:28.177Z,8
2022-10-19T22:32:10.624Z,6
2022-10-19T22:47:53.334Z,7.8
2022-10-19T23:03:36.279Z,8
2022-10-19T23:19:18.990Z,6.9
2022-10-19T23:35:01.287Z,6.8
2022-10-19T23:50:43.919Z,6.6
